Terminal Aerodrome Forecast
Issued by NWS

Home | Current Version | Previous Version | Text Only | Print | Product List | Glossary On
Versions: 1 2 3 4 5 6 7 8 9 10 11 12 13 14 15 16 17 18 19 20 21 22
000
FTUS43 KBIS 011700 RRA
TAFMOT
TAF
KMOT 011745Z 0118/0218 27018G28KT P6SM BKN020
     FM012100 27017G26KT P6SM BKN035
     FM020100 26012KT P6SM BKN040=

USA.gov is the U.S. government's official web portal to all federal, state and local government web resources and services.